Time;durP1;ratioP1;P1;durP2;ratioP2;P2;SDS_P1;SDS_P2;PMS_P1;PMS_P2;Temp;Humidity;BMP_temperature;BMP_pressure;BME280_temperature;BME280_humidity;BME280_pressure;Samples;Min_cycle;Max_cycle;Signal;HPM_P1;HPM_P2
2023/01/26 00:01:26;;;;;;;40.50;18.80;;;0.50;31.90;;;;;;7373462;19;20014;-77
2023/01/26 00:03:56;;;;;;;40.25;17.35;;;0.50;31.20;;;;;;7371921;19;20016;-77
2023/01/26 00:06:27;;;;;;;36.83;17.25;;;0.50;30.60;;;;;;7371734;19;20386;-77
2023/01/26 00:08:57;;;;;;;38.67;17.15;;;0.50;30.80;;;;;;7396717;19;19988;-77
2023/01/26 00:11:29;;;;;;;39.15;18.15;;;0.50;30.10;;;;;;7429091;19;20023;-77
2023/01/26 00:14:02;;;;;;;39.35;17.75;;;0.50;30.00;;;;;;7399643;19;20018;-77
2023/01/26 00:16:32;;;;;;;40.47;17.90;;;0.50;30.10;;;;;;7372964;19;20070;-77
2023/01/26 00:19:02;;;;;;;42.25;17.42;;;0.50;30.10;;;;;;7369730;19;20356;-77
2023/01/26 00:21:32;;;;;;;39.40;16.80;;;0.50;30.00;;;;;;7371460;19;20022;-77
2023/01/26 00:24:03;;;;;;;34.13;16.48;;;0.50;29.80;;;;;;7369544;19;20038;-77
2023/01/26 00:26:33;;;;;;;35.55;15.65;;;0.50;28.10;;;;;;7393632;19;20022;-77
2023/01/26 00:29:05;;;;;;;37.17;17.17;;;0.40;28.30;;;;;;7369256;19;20467;-77
2023/01/26 00:31:35;;;;;;;41.13;18.23;;;0.50;28.90;;;;;;7369956;19;20082;-77
2023/01/26 00:34:05;;;;;;;38.60;16.98;;;0.50;29.30;;;;;;7369001;19;20041;-77
2023/01/26 00:36:36;;;;;;;37.08;18.15;;;0.50;30.00;;;;;;7371308;19;20039;-77
2023/01/26 00:39:06;;;;;;;33.53;15.93;;;0.50;30.20;;;;;;7366789;19;20375;-77
2023/01/26 00:44:23;;;;;;;;;;;0.40;29.50;;;;;;7390732;19;20027;-77
2023/01/26 00:46:53;;;;;;;41.05;16.58;;;0.40;29.60;;;;;;7369869;19;19914;-78
2023/01/26 00:49:23;;;;;;;34.53;15.75;;;0.40;30.00;;;;;;7368620;19;20474;-79
2023/01/26 00:51:53;;;;;;;28.13;13.23;;;0.50;30.10;;;;;;7369954;19;20497;-79
2023/01/26 00:54:22;;;;;;;31.60;14.45;;;0.40;27.90;;;;;;7369891;19;20117;-77
2023/01/26 00:56:52;;;;;;;28.00;13.52;;;0.40;27.60;;;;;;7369164;19;20028;-78
2023/01/26 00:59:25;;;;;;;29.38;14.65;;;0.40;27.30;;;;;;7389719;19;20014;-77
2023/01/26 01:01:55;;;;;;;31.27;14.07;;;0.40;27.80;;;;;;7369191;19;20006;-77
2023/01/26 01:04:25;;;;;;;31.52;14.35;;;0.60;27.50;;;;;;7368332;19;20023;-77
2023/01/26 01:06:55;;;;;;;30.40;13.95;;;0.70;27.30;;;;;;7368968;19;20010;-78
2023/01/26 01:09:25;;;;;;;36.50;15.52;;;0.60;26.30;;;;;;7368052;19;20339;-78
2023/01/26 01:11:55;;;;;;;30.98;14.75;;;0.60;25.80;;;;;;7369751;19;20018;-78
2023/01/26 01:14:27;;;;;;;28.75;13.38;;;0.50;24.80;;;;;;7390212;19;20014;-77
2023/01/26 01:16:57;;;;;;;33.20;14.57;;;0.50;25.70;;;;;;7368043;19;20010;-78
2023/01/26 01:19:27;;;;;;;31.33;14.02;;;0.50;25.70;;;;;;7366600;19;20018;-77
2023/01/26 01:21:57;;;;;;;27.65;13.18;;;0.40;26.10;;;;;;7368271;19;20017;-78
2023/01/26 01:24:27;;;;;;;30.27;14.48;;;0.40;26.30;;;;;;7368594;19;20103;-78
2023/01/26 01:26:56;;;;;;;31.90;13.70;;;0.40;27.40;;;;;;7368747;19;20000;-77
2023/01/26 01:29:29;;;;;;;29.58;14.00;;;0.50;27.10;;;;;;7388166;19;20018;-77
2023/01/26 01:31:59;;;;;;;30.77;15.30;;;0.40;26.60;;;;;;7369412;19;20474;-77
2023/01/26 01:34:29;;;;;;;28.27;14.15;;;0.40;26.10;;;;;;7368719;19;20410;-77
2023/01/26 01:36:59;;;;;;;30.60;14.07;;;0.40;27.60;;;;;;7368835;19;20021;-78
2023/01/26 01:39:29;;;;;;;31.55;14.85;;;0.50;27.80;;;;;;7368960;19;20030;-78
2023/01/26 01:41:59;;;;;;;27.58;13.43;;;0.50;26.90;;;;;;7369192;19;20030;-78
2023/01/26 01:44:31;;;;;;;26.73;13.27;;;0.40;26.70;;;;;;7387193;19;20081;-78
2023/01/26 01:47:04;;;;;;;29.67;13.48;;;0.40;26.70;;;;;;7369400;19;20007;-78
2023/01/26 01:49:38;;;;;;;31.67;13.73;;;0.30;26.70;;;;;;7364528;19;20541;-77
2023/01/26 01:52:12;;;;;;;28.20;13.63;;;0.40;26.50;;;;;;7368054;19;20018;-78
2023/01/26 01:54:47;;;;;;;28.85;13.90;;;0.40;26.10;;;;;;7368541;19;20018;-78
2023/01/26 01:57:26;;;;;;;31.27;13.63;;;0.40;25.40;;;;;;7368667;19;20010;-78
2023/01/26 02:00:04;;;;;;;26.02;13.15;;;0.40;25.40;;;;;;7367412;19;20019;-78
2023/01/26 02:02:35;;;;;;;30.48;14.70;;;0.50;25.70;;;;;;7390421;19;20010;-77
2023/01/26 02:05:15;;;;;;;33.63;14.18;;;0.50;25.90;;;;;;7369020;19;20026;-77
2023/01/26 02:07:45;;;;;;;28.13;14.05;;;0.50;25.50;;;;;;7367734;19;20029;-77
2023/01/26 02:10:21;;;;;;;30.45;13.52;;;0.50;25.20;;;;;;7368307;19;20359;-77
2023/01/26 02:12:59;;;;;;;29.85;13.55;;;0.40;24.80;;;;;;7367917;19;20002;-78
2023/01/26 02:15:32;;;;;;;30.92;13.75;;;0.40;25.60;;;;;;7368229;19;20021;-78
2023/01/26 02:18:04;;;;;;;27.92;13.00;;;0.40;26.60;;;;;;7368575;19;20095;-78
2023/01/26 02:20:38;;;;;;;37.90;15.80;;;0.30;25.00;;;;;;7388100;19;20468;-78
2023/01/26 02:23:17;;;;;;;32.88;14.85;;;0.30;26.50;;;;;;7369067;19;20018;-78
2023/01/26 02:26:00;;;;;;;32.00;14.25;;;0.30;26.80;;;;;;7366142;19;20486;-78
2023/01/26 02:28:31;;;;;;;29.58;14.68;;;0.30;26.40;;;;;;7366566;19;20011;-78
2023/01/26 02:31:02;;;;;;;34.25;16.05;;;0.30;26.60;;;;;;7367947;19;20014;-78
2023/01/26 02:33:34;;;;;;;29.85;13.88;;;0.40;26.60;;;;;;7366678;19;20011;-78
2023/01/26 02:36:05;;;;;;;29.70;13.55;;;0.30;26.10;;;;;;7366897;19;20806;-78
2023/01/26 02:38:41;;;;;;;32.55;14.40;;;0.30;26.00;;;;;;7389169;19;20425;-78
2023/01/26 02:42:37;;;;;;;29.90;14.35;;;0.30;25.70;;;;;;7365431;19;20015;-78
2023/01/26 02:44:09;;;;;;;31.42;14.23;;;0.40;26.30;;;;;;7367048;19;20079;-78
2023/01/26 02:46:39;;;;;;;28.45;14.48;;;0.40;25.70;;;;;;7367403;19;20091;-78
2023/01/26 02:51:51;;;;;;;26.42;13.23;;;0.30;26.00;;;;;;7367676;19;20010;-78
2023/01/26 02:57:06;;;;;;;40.17;14.82;;;0.30;27.70;;;;;;7367368;19;20007;-77
2023/01/26 02:59:35;;;;;;;34.92;15.48;;;0.20;28.10;;;;;;7387573;19;20017;-78
2023/01/26 03:02:05;;;;;;;35.65;15.65;;;0.20;28.60;;;;;;7372280;19;20452;-78
2023/01/26 03:04:35;;;;;;;39.00;15.68;;;0.20;29.30;;;;;;7374060;19;20024;-78
2023/01/26 03:07:05;;;;;;;35.15;15.23;;;0.20;29.70;;;;;;7374273;19;20348;-77
2023/01/26 03:09:35;;;;;;;36.70;15.65;;;0.30;29.90;;;;;;7372259;19;20024;-77
2023/01/26 03:12:07;;;;;;;32.13;15.40;;;0.20;29.90;;;;;;7374935;19;20003;-78
2023/01/26 03:14:37;;;;;;;33.35;15.35;;;0.20;30.00;;;;;;7379369;19;20014;-77
2023/01/26 03:17:07;;;;;;;39.33;15.70;;;0.10;29.90;;;;;;7396878;19;20327;-76
2023/01/26 03:27:48;;;;;;;39.25;17.95;;;0.10;31.70;;;;;;7373456;19;20089;-78
2023/01/26 03:30:20;;;;;;;44.72;18.67;;;0.10;31.60;;;;;;7372202;19;20447;-78
2023/01/26 03:32:50;;;;;;;42.92;17.95;;;0.10;31.90;;;;;;7373666;19;20374;-77
2023/01/26 03:35:21;;;;;;;39.33;18.00;;;0.10;32.40;;;;;;7393635;19;20010;-76
2023/01/26 03:37:53;;;;;;;44.88;18.92;;;0.20;32.60;;;;;;7373250;19;20014;-76
2023/01/26 03:56:43;;;;;;;41.33;18.23;;;0.00;35.30;;;;;;7372745;19;20014;-78
2023/01/26 03:59:16;;;;;;;41.47;19.45;;;0.00;34.60;;;;;;7392803;19;20021;-77
2023/01/26 04:09:55;;;;;;;47.63;19.33;;;-0.10;35.70;;;;;;7370346;19;20474;-78
2023/01/26 04:12:25;;;;;;;45.85;19.63;;;-0.10;35.10;;;;;;7370577;19;20539;-77
2023/01/26 04:23:04;;;;;;;45.00;19.80;;;-0.10;35.40;;;;;;7371954;19;20015;-77
2023/01/26 04:25:33;;;;;;;43.00;18.15;;;-0.10;35.30;;;;;;7371594;19;20816;-78
2023/01/26 04:28:03;;;;;;;48.63;20.38;;;-0.10;35.90;;;;;;7372525;19;20110;-78
2023/01/26 04:30:36;;;;;;;41.58;19.10;;;-0.10;36.20;;;;;;7368894;19;20003;-77
2023/01/26 04:33:06;;;;;;;47.25;18.95;;;-0.20;35.60;;;;;;7369904;19;20011;-78
2023/01/26 04:35:36;;;;;;;41.58;18.13;;;-0.10;36.40;;;;;;7392788;19;20014;-78
2023/01/26 04:38:05;;;;;;;37.33;17.48;;;-0.10;36.10;;;;;;7372509;19;20002;-76
2023/01/26 04:40:35;;;;;;;40.75;18.25;;;-0.20;35.80;;;;;;7369095;19;20007;-77
2023/01/26 04:43:05;;;;;;;41.60;18.23;;;-0.10;36.80;;;;;;7371602;19;20014;-77
2023/01/26 04:45:37;;;;;;;42.08;17.98;;;-0.10;36.80;;;;;;7370405;19;20380;-77
2023/01/26 04:48:07;;;;;;;41.58;17.25;;;-0.20;36.40;;;;;;7370843;19;20014;-77
2023/01/26 04:50:37;;;;;;;35.72;15.57;;;-0.20;35.90;;;;;;7373188;19;20021;-78
2023/01/26 04:53:07;;;;;;;39.63;18.30;;;-0.20;36.10;;;;;;7393561;19;20018;-78
2023/01/26 04:55:37;;;;;;;41.15;17.20;;;-0.20;37.10;;;;;;7370475;19;20011;-78
2023/01/26 04:58:07;;;;;;;42.25;18.25;;;-0.20;36.30;;;;;;7371448;19;20392;-78
2023/01/26 05:00:39;;;;;;;44.60;18.05;;;-0.20;37.10;;;;;;7367622;19;20449;-77
2023/01/26 05:03:09;;;;;;;43.50;17.48;;;-0.20;37.20;;;;;;7371093;19;20474;-78
2023/01/26 05:05:39;;;;;;;48.33;19.27;;;-0.30;36.70;;;;;;7369774;19;20015;-78
2023/01/26 05:08:09;;;;;;;41.90;18.80;;;-0.20;37.90;;;;;;7393501;19;20086;-77
2023/01/26 05:10:39;;;;;;;44.60;18.15;;;-0.30;37.30;;;;;;7368387;19;20009;-77
2023/01/26 05:13:09;;;;;;;47.50;19.38;;;-0.30;37.30;;;;;;7370222;19;20085;-77
2023/01/26 05:15:42;;;;;;;48.78;18.90;;;-0.30;38.00;;;;;;7370242;19;20382;-78
2023/01/26 05:18:13;;;;;;;41.95;18.73;;;-0.30;37.70;;;;;;7370895;19;20003;-77
2023/01/26 05:20:42;;;;;;;45.88;19.85;;;-0.30;38.00;;;;;;7367511;19;20085;-77
2023/01/26 05:23:12;;;;;;;41.25;18.58;;;-0.30;38.20;;;;;;7391939;19;20012;-78
2023/01/26 05:25:42;;;;;;;38.78;17.65;;;-0.40;37.30;;;;;;7369022;19;20007;-78
2023/01/26 05:28:12;;;;;;;47.53;18.50;;;-0.40;37.90;;;;;;7369871;19;20013;-78
2023/01/26 05:30:44;;;;;;;44.10;18.45;;;-0.40;37.80;;;;;;7367893;19;20018;-78
2023/01/26 05:33:14;;;;;;;48.45;20.30;;;-0.30;38.10;;;;;;7369935;19;20447;-78
2023/01/26 05:35:44;;;;;;;42.10;19.27;;;-0.30;38.00;;;;;;7369886;19;20021;-77
2023/01/26 05:38:14;;;;;;;45.75;18.90;;;-0.30;37.50;;;;;;7391451;19;20007;-77
2023/01/26 05:40:44;;;;;;;44.45;19.67;;;-0.30;37.90;;;;;;7368113;19;20017;-78
2023/01/26 05:43:14;;;;;;;49.45;18.90;;;-0.30;38.10;;;;;;7370220;19;20005;-78
2023/01/26 05:45:47;;;;;;;48.08;20.45;;;-0.30;38.40;;;;;;7369320;19;20013;-78
2023/01/26 05:48:16;;;;;;;44.78;19.02;;;-0.30;38.40;;;;;;7369104;19;20016;-78
2023/01/26 05:50:46;;;;;;;48.60;19.00;;;-0.30;37.50;;;;;;7368332;19;20021;-77
2023/01/26 05:53:16;;;;;;;45.90;18.52;;;-0.40;37.40;;;;;;7391300;19;20013;-77
2023/01/26 05:55:47;;;;;;;42.13;19.08;;;-0.40;36.70;;;;;;7369550;19;20011;-77
2023/01/26 05:58:17;;;;;;;38.28;18.70;;;-0.40;37.30;;;;;;7369257;19;20010;-77
2023/01/26 06:00:49;;;;;;;42.03;17.90;;;-0.40;37.40;;;;;;7368016;19;20017;-78
2023/01/26 06:03:19;;;;;;;44.10;18.85;;;-0.40;37.30;;;;;;7367378;19;20595;-77
2023/01/26 06:05:55;;;;;;;43.10;18.33;;;-0.40;36.70;;;;;;7368471;19;20014;-77
2023/01/26 06:08:25;;;;;;;52.03;19.48;;;-0.50;37.00;;;;;;7388920;19;20077;-77
2023/01/26 06:11:00;;;;;;;46.85;19.70;;;-0.40;37.20;;;;;;7368113;19;20378;-76
2023/01/26 06:13:31;;;;;;;44.55;18.25;;;-0.40;37.50;;;;;;7366748;19;20007;-77
2023/01/26 06:16:05;;;;;;;42.22;18.35;;;-0.50;35.60;;;;;;7367815;19;20027;-76
2023/01/26 06:18:35;;;;;;;38.55;18.02;;;-0.50;35.60;;;;;;7367618;19;20006;-78
2023/01/26 06:21:04;;;;;;;45.45;19.10;;;-0.50;34.90;;;;;;7368258;19;20010;-77
2023/01/26 06:23:34;;;;;;;44.00;19.27;;;-0.50;35.20;;;;;;7389305;19;20010;-77
2023/01/26 06:26:05;;;;;;;43.97;19.02;;;-0.50;36.40;;;;;;7364635;19;20017;-78
2023/01/26 06:28:34;;;;;;;39.47;18.98;;;-0.40;36.40;;;;;;7367100;19;20010;-78
2023/01/26 06:31:10;;;;;;;42.13;18.02;;;-0.50;34.70;;;;;;7367495;19;20029;-77
2023/01/26 06:33:40;;;;;;;41.40;18.42;;;-0.50;34.60;;;;;;7366862;19;20030;-77
2023/01/26 06:36:13;;;;;;;44.55;18.38;;;-0.50;35.10;;;;;;7366771;19;20014;-77
2023/01/26 06:38:47;;;;;;;45.22;21.05;;;-0.50;35.70;;;;;;7365526;19;20017;-78
2023/01/26 06:41:18;;;;;;;48.97;19.88;;;-0.30;36.10;;;;;;7389275;19;20070;-78
2023/01/26 06:43:49;;;;;;;40.83;18.35;;;-0.40;35.70;;;;;;7366731;19;20014;-76
2023/01/26 06:46:22;;;;;;;49.33;18.77;;;-0.30;35.70;;;;;;7366224;19;20009;-77
2023/01/26 06:48:52;;;;;;;40.45;17.80;;;-0.30;35.20;;;;;;7365802;19;20014;-78
2023/01/26 06:51:44;;;;;;;36.25;16.58;;;-0.40;33.60;;;;;;7365350;19;20534;-77
2023/01/26 06:54:15;;;;;;;39.72;17.85;;;-0.50;32.30;;;;;;7368234;19;20006;-78
2023/01/26 06:56:45;;;;;;;30.77;13.98;;;-0.30;34.30;;;;;;7366897;19;20017;-78
2023/01/26 06:59:15;;;;;;;31.63;14.70;;;-0.40;32.50;;;;;;7387700;19;20017;-75
2023/01/26 07:01:50;;;;;;;36.92;15.20;;;-0.50;31.90;;;;;;7366163;19;20014;-77
2023/01/26 07:04:19;;;;;;;;;;;-0.40;31.50;;;;;;7367444;19;20363;-78
2023/01/26 07:06:49;;;;;;;34.35;15.10;;;-0.40;30.70;;;;;;7365368;19;19975;-77
2023/01/26 07:09:19;;;;;;;32.45;13.85;;;-0.40;29.70;;;;;;7364811;19;20044;-78
2023/01/26 07:11:49;;;;;;;32.33;15.77;;;-0.50;29.70;;;;;;7365261;19;20358;-79
2023/01/26 07:14:19;;;;;;;35.53;15.35;;;-0.40;29.00;;;;;;7388745;19;20043;-78
2023/01/26 07:16:51;;;;;;;31.05;14.40;;;-0.40;28.50;;;;;;7365817;19;20015;-77
2023/01/26 07:19:21;;;;;;;34.90;15.88;;;-0.40;27.70;;;;;;7364895;19;20042;-78
2023/01/26 07:21:51;;;;;;;32.95;15.20;;;-0.40;28.00;;;;;;7364145;19;20021;-77
2023/01/26 07:24:21;;;;;;;32.78;15.40;;;-0.40;28.30;;;;;;7364878;19;20031;-79
2023/01/26 07:26:51;;;;;;;36.53;17.27;;;-0.40;28.20;;;;;;7365274;19;20029;-78
2023/01/26 07:29:21;;;;;;;34.45;15.30;;;-0.40;27.90;;;;;;7385726;19;20013;-77
2023/01/26 07:31:53;;;;;;;38.83;18.80;;;-0.40;27.50;;;;;;7363681;19;20592;-77
2023/01/26 07:34:23;;;;;;;38.33;17.10;;;-0.30;28.50;;;;;;7365088;19;20038;-78
2023/01/26 07:36:53;;;;;;;35.35;15.75;;;-0.20;28.10;;;;;;7364947;19;20018;-78
2023/01/26 07:39:23;;;;;;;37.35;16.40;;;-0.20;27.40;;;;;;7363809;19;19998;-78
2023/01/26 07:41:53;;;;;;;40.70;17.83;;;-0.20;27.60;;;;;;7365901;19;20003;-78
2023/01/26 07:44:23;;;;;;;32.20;16.25;;;-0.20;27.20;;;;;;7388472;19;20014;-79
2023/01/26 07:46:55;;;;;;;36.72;16.02;;;-0.20;27.50;;;;;;7365025;19;20010;-77
2023/01/26 07:49:25;;;;;;;34.03;15.77;;;-0.20;26.70;;;;;;7368098;19;20044;-78
2023/01/26 07:51:55;;;;;;;33.30;16.40;;;-0.30;26.40;;;;;;7371867;19;20018;-79
2023/01/26 07:54:25;;;;;;;37.83;16.92;;;-0.30;26.40;;;;;;7372976;19;20021;-79
2023/01/26 07:56:55;;;;;;;38.97;16.70;;;-0.30;27.10;;;;;;7372449;19;20085;-78
2023/01/26 07:59:26;;;;;;;34.42;15.73;;;-0.30;27.30;;;;;;7392924;19;20010;-76
2023/01/26 08:01:58;;;;;;;36.70;17.45;;;-0.20;27.30;;;;;;7370842;19;20014;-78
2023/01/26 08:04:28;;;;;;;35.95;16.75;;;-0.20;26.90;;;;;;7371930;19;20010;-78
2023/01/26 08:06:58;;;;;;;37.92;16.35;;;-0.10;27.10;;;;;;7371997;19;20020;-78
2023/01/26 08:09:28;;;;;;;35.53;15.57;;;-0.20;26.70;;;;;;7370118;19;20087;-78
2023/01/26 08:11:58;;;;;;;29.77;13.52;;;-0.20;26.40;;;;;;7371782;19;20570;-79
2023/01/26 08:14:28;;;;;;;35.92;15.30;;;-0.20;25.80;;;;;;7392284;19;20028;-78
2023/01/26 08:17:17;;;;;;;33.95;15.30;;;-0.20;25.40;;;;;;7370078;19;20006;-79
2023/01/26 08:19:47;;;;;;;33.25;15.25;;;-0.20;25.50;;;;;;7369401;19;20014;-78
2023/01/26 08:22:17;;;;;;;35.47;13.98;;;-0.20;25.60;;;;;;7371506;19;20012;-78
2023/01/26 08:24:47;;;;;;;34.63;15.63;;;-0.10;26.20;;;;;;7369552;19;20010;-77
2023/01/26 08:27:21;;;;;;;31.08;16.23;;;-0.10;25.80;;;;;;7369638;19;20015;-78
2023/01/26 08:29:51;;;;;;;29.23;13.55;;;-0.10;25.60;;;;;;7368927;19;20026;-77
2023/01/26 08:32:23;;;;;;;28.58;13.90;;;-0.20;25.20;;;;;;7391816;19;20078;-78
2023/01/26 08:34:53;;;;;;;28.95;13.52;;;-0.10;25.30;;;;;;7369815;19;20011;-78
2023/01/26 08:37:25;;;;;;;30.92;14.15;;;0.00;25.70;;;;;;7368662;19;20030;-78
2023/01/26 08:39:55;;;;;;;33.03;16.42;;;-0.10;24.30;;;;;;7368273;19;20007;-78
2023/01/26 08:42:25;;;;;;;32.33;15.05;;;-0.10;23.20;;;;;;7369630;19;20090;-77
2023/01/26 08:44:55;;;;;;;35.67;15.93;;;-0.10;24.50;;;;;;7370025;19;20018;-78
2023/01/26 08:47:27;;;;;;;33.33;15.35;;;-0.10;25.10;;;;;;7391144;19;20011;-78
2023/01/26 08:49:57;;;;;;;33.88;15.80;;;0.10;24.30;;;;;;7366124;19;20011;-78
2023/01/26 08:52:27;;;;;;;30.48;14.07;;;0.20;24.80;;;;;;7369673;19;20017;-78
2023/01/26 08:54:57;;;;;;;29.67;12.63;;;0.00;21.60;;;;;;7362463;19;20510;-78
2023/01/26 08:57:27;;;;;;;27.38;13.60;;;0.00;21.80;;;;;;7364173;19;20110;-79
2023/01/26 08:59:57;;;;;;;26.30;12.50;;;-0.10;21.20;;;;;;7366133;19;20004;-78
2023/01/26 09:02:29;;;;;;;28.42;12.90;;;0.00;20.20;;;;;;7389077;19;20849;-78
2023/01/26 09:04:59;;;;;;;29.73;13.40;;;-0.10;19.50;;;;;;7369103;19;20032;-78
2023/01/26 09:07:29;;;;;;;26.13;12.05;;;-0.10;18.90;;;;;;7369079;19;20006;-77
2023/01/26 09:09:59;;;;;;;29.23;13.15;;;0.00;19.20;;;;;;7366464;19;20021;-77
2023/01/26 09:12:29;;;;;;;31.95;13.45;;;-0.10;19.20;;;;;;7368405;19;20011;-78
2023/01/26 09:14:59;;;;;;;25.48;12.05;;;-0.10;19.80;;;;;;7365768;19;20066;-78
2023/01/26 09:17:31;;;;;;;25.23;13.27;;;-0.10;21.80;;;;;;7391366;19;20530;-78
2023/01/26 09:20:01;;;;;;;25.17;12.27;;;-0.10;20.50;;;;;;7365512;19;20022;-78
2023/01/26 09:22:31;;;;;;;25.27;11.70;;;-0.10;21.60;;;;;;7368093;19;20498;-78
2023/01/26 09:25:01;;;;;;;31.77;12.65;;;-0.10;20.60;;;;;;7368375;19;20045;-77
2023/01/26 09:27:30;;;;;;;26.20;12.02;;;-0.10;20.70;;;;;;7368819;19;20010;-78
2023/01/26 09:30:00;;;;;;;27.88;12.07;;;-0.10;21.30;;;;;;7365653;19;20017;-77
2023/01/26 09:32:33;;;;;;;26.25;12.00;;;-0.20;20.40;;;;;;7390192;19;20015;-77
2023/01/26 09:35:03;;;;;;;23.58;11.57;;;-0.10;21.30;;;;;;7370596;19;20006;-77
2023/01/26 09:37:32;;;;;;;26.45;12.45;;;0.00;21.60;;;;;;7369573;19;20030;-78
2023/01/26 09:40:02;;;;;;;26.05;10.68;;;-0.10;20.20;;;;;;7366595;19;20011;-78
2023/01/26 09:42:41;;;;;;;27.05;12.00;;;-0.10;19.80;;;;;;7368950;19;20089;-78
2023/01/26 09:45:32;;;;;;;26.73;11.93;;;-0.20;19.80;;;;;;7369546;19;20006;-78
2023/01/26 09:48:26;;;;;;;28.52;12.85;;;-0.20;19.40;;;;;;7367372;19;20025;-79
2023/01/26 09:50:59;;;;;;;23.05;10.90;;;-0.20;19.70;;;;;;7367923;19;20158;-77
2023/01/26 09:53:38;;;;;;;26.42;11.68;;;-0.20;19.10;;;;;;7389746;19;20070;-78
2023/01/26 09:56:14;;;;;;;23.23;10.60;;;-0.20;18.90;;;;;;7368131;19;20481;-78
2023/01/26 09:58:47;;;;;;;24.15;10.38;;;-0.20;18.20;;;;;;7361605;19;20779;-78
2023/01/26 10:01:24;;;;;;;23.73;10.27;;;-0.10;18.90;;;;;;7364164;19;20006;-78
2023/01/26 10:04:05;;;;;;;26.08;11.00;;;-0.10;17.90;;;;;;7367720;19;20021;-78
2023/01/26 10:06:35;;;;;;;25.20;10.80;;;-0.10;18.00;;;;;;7366026;19;20476;-77
2023/01/26 10:09:17;;;;;;;22.73;11.38;;;-0.10;18.90;;;;;;7361809;19;20031;-76
2023/01/26 10:11:50;;;;;;;25.13;11.52;;;0.00;18.80;;;;;;7369862;19;20119;-79
2023/01/26 10:14:23;;;;;;;20.38;10.25;;;0.00;18.40;;;;;;7420054;19;20035;-78
2023/01/26 10:16:55;;;;;;;22.48;10.30;;;-0.10;16.40;;;;;;7396153;19;20251;-78
2023/01/26 10:19:37;;;;;;;22.23;10.15;;;-0.10;16.40;;;;;;7375363;19;20087;-80
2023/01/26 10:22:15;;;;;;;22.63;10.02;;;-0.20;16.30;;;;;;7365079;19;20068;-80
2023/01/26 10:24:48;;;;;;;22.00;8.63;;;-0.20;17.10;;;;;;7362609;19;20856;-78
2023/01/26 10:27:18;;;;;;;18.75;9.80;;;-0.10;16.90;;;;;;7364216;19;20014;-79
2023/01/26 10:29:48;;;;;;;21.48;9.98;;;0.00;17.10;;;;;;7361357;19;20383;-79
2023/01/26 10:32:19;;;;;;;18.88;9.63;;;0.00;15.60;;;;;;7384976;19;20496;-79
2023/01/26 10:34:53;;;;;;;19.38;7.95;;;-0.10;15.10;;;;;;7362713;19;20014;-80
2023/01/26 10:37:25;;;;;;;23.25;9.65;;;-0.10;13.60;;;;;;7362230;19;20453;-80
2023/01/26 10:40:03;;;;;;;18.00;8.82;;;0.00;14.60;;;;;;7361685;19;20007;-79
2023/01/26 10:42:34;;;;;;;19.77;9.18;;;-0.10;13.80;;;;;;7363455;19;20523;-80
2023/01/26 10:45:08;;;;;;;18.88;10.18;;;0.10;15.20;;;;;;7362099;19;20045;-79
2023/01/26 10:47:37;;;;;;;20.73;9.10;;;0.00;13.00;;;;;;7367444;19;20014;-80
2023/01/26 10:50:24;;;;;;;19.38;9.32;;;0.00;13.40;;;;;;7382454;19;20098;-79
2023/01/26 10:53:02;;;;;;;19.80;9.77;;;-0.10;13.60;;;;;;7361774;19;20019;-78
2023/01/26 10:55:35;;;;;;;17.27;8.85;;;-0.10;12.60;;;;;;7362134;19;20031;-78
2023/01/26 10:58:05;;;;;;;18.25;8.65;;;-0.10;12.80;;;;;;7362335;19;20025;-79
2023/01/26 11:00:36;;;;;;;14.77;7.65;;;-0.20;12.00;;;;;;7361992;19;20014;-78
2023/01/26 11:03:19;;;;;;;17.52;8.88;;;-0.20;10.40;;;;;;7361868;19;20082;-78
2023/01/26 11:06:08;;;;;;;21.90;10.25;;;-0.10;11.30;;;;;;7360665;19;20078;-78
2023/01/26 11:08:40;;;;;;;22.88;9.88;;;-0.10;12.40;;;;;;7360740;19;20105;-78
2023/01/26 11:11:27;;;;;;;21.02;9.27;;;0.00;11.80;;;;;;7382874;19;20018;-79
2023/01/26 11:14:12;;;;;;;18.42;8.05;;;0.00;10.50;;;;;;7360472;19;20015;-78
2023/01/26 11:16:46;;;;;;;20.98;9.30;;;-0.10;12.00;;;;;;7361479;19;20414;-79
2023/01/26 11:19:27;;;;;;;19.25;9.07;;;-0.10;12.80;;;;;;7362072;19;20121;-77
2023/01/26 11:22:06;;;;;;;21.17;10.32;;;-0.10;12.80;;;;;;7360894;19;20007;-78
2023/01/26 11:24:44;;;;;;;18.17;10.00;;;-0.20;12.80;;;;;;7370583;19;20010;-80
2023/01/26 11:27:37;;;;;;;17.52;8.48;;;-0.10;12.80;;;;;;7369298;19;20006;-80
2023/01/26 11:30:39;;;;;;;22.23;8.95;;;-0.10;12.00;;;;;;7366529;19;20085;-79
2023/01/26 11:33:19;;;;;;;19.42;9.15;;;-0.10;12.30;;;;;;7369583;19;20037;-79
2023/01/26 11:35:55;;;;;;;20.27;9.23;;;-0.10;12.20;;;;;;7366141;19;20014;-79
2023/01/26 11:38:37;;;;;;;20.08;9.25;;;0.00;12.30;;;;;;7387505;19;20061;-78
2023/01/26 11:41:30;;;;;;;22.45;10.13;;;0.00;11.80;;;;;;7366169;19;20021;-78
2023/01/26 11:44:23;;;;;;;19.35;8.60;;;0.00;12.20;;;;;;7365328;19;20010;-78
2023/01/26 11:47:08;;;;;;;21.25;10.05;;;-0.10;11.20;;;;;;7366461;19;20078;-79
2023/01/26 11:50:03;;;;;;;21.67;9.13;;;-0.10;12.00;;;;;;7363549;19;20006;-79
2023/01/26 11:52:43;;;;;;;25.83;11.55;;;-0.10;12.90;;;;;;7368436;19;20061;-79
2023/01/26 11:55:29;;;;;;;26.02;11.80;;;-0.10;12.00;;;;;;7364940;19;20015;-78
2023/01/26 11:58:16;;;;;;;22.95;12.10;;;-0.10;12.70;;;;;;7365251;19;20011;-79
2023/01/26 12:00:51;;;;;;;23.08;11.02;;;-0.20;13.00;;;;;;7365951;19;20541;-78
2023/01/26 12:03:27;;;;;;;26.65;13.65;;;-0.20;15.10;;;;;;7366487;19;20010;-77
2023/01/26 12:06:02;;;;;;;29.30;13.52;;;-0.10;15.60;;;;;;7368018;19;20003;-78
2023/01/26 12:08:39;;;;;;;30.60;13.20;;;-0.10;16.30;;;;;;7385001;19;20015;-77
2023/01/26 12:11:26;;;;;;;27.23;12.90;;;-0.20;15.10;;;;;;7363564;19;20026;-77
2023/01/26 12:14:07;;;;;;;31.95;13.68;;;-0.20;16.20;;;;;;7366130;19;20491;-78
2023/01/26 12:16:45;;;;;;;29.42;12.88;;;-0.30;15.20;;;;;;7367450;19;20013;-78
2023/01/26 12:19:26;;;;;;;27.50;13.15;;;-0.30;16.20;;;;;;7365546;19;20017;-78
2023/01/26 12:22:02;;;;;;;31.30;15.20;;;-0.30;16.20;;;;;;7366590;19;20488;-76
2023/01/26 12:24:39;;;;;;;32.15;13.98;;;-0.30;17.20;;;;;;7366629;19;20097;-77
2023/01/26 12:27:39;;;;;;;30.83;15.23;;;-0.20;16.30;;;;;;7363678;19;20089;-76
2023/01/26 12:30:25;;;;;;;32.22;14.25;;;-0.10;16.40;;;;;;7359711;19;20019;-77
2023/01/26 12:32:56;;;;;;;30.85;12.43;;;-0.30;15.10;;;;;;7361783;19;20039;-78
2023/01/26 12:35:39;;;;;;;28.38;12.93;;;-0.20;15.00;;;;;;7382266;19;20022;-78
2023/01/26 12:38:15;;;;;;;30.92;14.00;;;-0.30;14.30;;;;;;7362998;19;20018;-77
2023/01/26 12:41:00;;;;;;;31.23;13.88;;;-0.30;15.10;;;;;;7362497;19;20025;-78
2023/01/26 12:43:45;;;;;;;25.23;12.35;;;-0.20;14.80;;;;;;7366525;19;20549;-78
2023/01/26 12:46:17;;;;;;;25.13;13.00;;;-0.20;15.50;;;;;;7366345;19;20015;-77
2023/01/26 12:48:50;;;;;;;25.88;12.75;;;-0.20;14.40;;;;;;7365822;19;20014;-78
2023/01/26 12:51:25;;;;;;;27.48;12.32;;;-0.20;14.20;;;;;;7367984;19;20066;-77
2023/01/26 12:54:00;;;;;;;27.52;11.73;;;-0.10;14.80;;;;;;7363697;19;20011;-77
2023/01/26 12:56:34;;;;;;;28.25;13.27;;;-0.20;15.10;;;;;;7381693;19;20502;-77
2023/01/26 12:59:16;;;;;;;27.80;12.68;;;-0.20;15.10;;;;;;7360530;19;20491;-79
2023/01/26 13:02:20;;;;;;;28.98;14.43;;;-0.10;14.50;;;;;;7366446;19;20010;-75
2023/01/26 13:04:51;;;;;;;27.85;12.15;;;-0.10;15.70;;;;;;7361700;19;20077;-78
2023/01/26 13:07:40;;;;;;;25.55;12.35;;;-0.20;15.50;;;;;;7362856;19;20018;-79
2023/01/26 13:10:26;;;;;;;28.27;14.23;;;-0.30;16.00;;;;;;7360723;19;20026;-77
2023/01/26 13:12:59;;;;;;;30.17;13.23;;;-0.20;16.30;;;;;;7362942;19;20146;-78
2023/01/26 13:15:33;;;;;;;29.23;13.02;;;-0.40;16.20;;;;;;7363307;19;20013;-80
2023/01/26 13:18:05;;;;;;;28.50;12.73;;;-0.30;16.20;;;;;;7364094;19;20006;-78
2023/01/26 13:20:53;;;;;;;28.25;13.35;;;-0.20;16.50;;;;;;7389468;19;20257;-79
2023/01/26 13:23:39;;;;;;;30.40;12.68;;;-0.30;16.80;;;;;;7362448;19;20025;-82
2023/01/26 13:26:17;;;;;;;26.85;14.10;;;-0.30;16.30;;;;;;7363404;19;20076;-80
2023/01/26 13:28:49;;;;;;;27.80;12.48;;;-0.20;16.30;;;;;;7396169;19;20013;-79
2023/01/26 13:31:35;;;;;;;28.38;13.73;;;-0.40;14.60;;;;;;7398445;19;20017;-80
2023/01/26 13:34:10;;;;;;;28.45;12.73;;;-0.30;16.70;;;;;;7383208;19;20010;-76
2023/01/26 13:36:43;;;;;;;25.00;11.63;;;-0.30;15.30;;;;;;7366833;19;20033;-78
2023/01/26 13:39:19;;;;;;;25.70;11.02;;;-0.30;15.40;;;;;;7361841;19;20495;-78
2023/01/26 13:41:50;;;;;;;29.60;12.70;;;-0.20;15.30;;;;;;7362346;19;20498;-78
2023/01/26 13:44:25;;;;;;;23.15;11.55;;;-0.20;14.50;;;;;;7383086;19;20018;-77
2023/01/26 13:47:01;;;;;;;22.67;11.13;;;-0.20;14.40;;;;;;7360156;19;20087;-78
2023/01/26 13:49:40;;;;;;;27.60;11.73;;;-0.10;13.20;;;;;;7358681;19;20014;-80
2023/01/26 13:52:19;;;;;;;23.92;11.70;;;-0.10;12.90;;;;;;7361488;19;20021;-78